Time;durP1;ratioP1;P1;durP2;ratioP2;P2;SDS_P1;SDS_P2;PMS_P1;PMS_P2;Temp;Humidity;BMP_temperature;BMP_pressure;BME280_temperature;BME280_humidity;BME280_pressure;Samples;Min_cycle;Max_cycle;Signal;HPM_P1;HPM_P2
2024/01/22 00:00:35;;;;;;;12.02;4.32;;;9.30;99.90;;;;;;5094161;28;20027;-44
2024/01/22 00:03:01;;;;;;;4.90;2.30;;;9.30;99.90;;;;;;5095392;28;20018;-40
2024/01/22 00:05:26;;;;;;;11.35;2.90;;;9.30;99.90;;;;;;5100606;28;20474;-44
2024/01/22 00:07:52;;;;;;;6.43;3.00;;;9.30;99.90;;;;;;5093318;28;20020;-39
2024/01/22 00:10:17;;;;;;;7.03;2.60;;;9.40;99.90;;;;;;5095206;28;20534;-43
2024/01/22 00:12:43;;;;;;;5.72;2.35;;;9.40;99.90;;;;;;5107726;28;20158;-54
2024/01/22 00:15:09;;;;;;;7.03;3.03;;;9.40;99.90;;;;;;5115588;28;20015;-38
2024/01/22 00:17:35;;;;;;;5.55;2.22;;;9.40;99.90;;;;;;5115456;27;20035;-45
2024/01/22 00:20:02;;;;;;;9.15;2.97;;;9.50;99.90;;;;;;5115467;28;20501;-39
2024/01/22 00:22:28;;;;;;;5.80;2.33;;;9.50;99.90;;;;;;5114512;28;20530;-45
2024/01/22 00:24:53;;;;;;;9.27;3.13;;;9.50;99.90;;;;;;5115327;28;20028;-40
2024/01/22 00:27:19;;;;;;;4.40;2.85;;;9.50;99.90;;;;;;5115265;28;20081;-39
2024/01/22 00:29:44;;;;;;;5.90;2.50;;;9.50;99.90;;;;;;5115558;28;20488;-48
2024/01/22 00:32:10;;;;;;;7.43;2.15;;;9.60;99.90;;;;;;5113872;28;20027;-48
2024/01/22 00:34:36;;;;;;;3.97;2.70;;;9.60;99.90;;;;;;5115082;28;20034;-38
2024/01/22 00:37:01;;;;;;;4.53;2.50;;;9.60;99.90;;;;;;5115081;28;20039;-39
2024/01/22 00:39:27;;;;;;;4.07;2.45;;;9.70;99.90;;;;;;5114181;28;20149;-40
2024/01/22 00:41:52;;;;;;;5.88;2.63;;;9.70;99.90;;;;;;5109873;28;20024;-38
2024/01/22 00:44:18;;;;;;;6.50;2.65;;;9.70;99.90;;;;;;5094562;28;20020;-43
2024/01/22 00:46:44;;;;;;;7.60;2.78;;;9.80;99.90;;;;;;5094638;28;20055;-43
2024/01/22 00:49:09;;;;;;;7.00;2.80;;;9.80;99.90;;;;;;5094435;28;20036;-40
2024/01/22 00:51:37;;;;;;;8.95;2.63;;;9.80;99.90;;;;;;5094500;28;20593;-40
2024/01/22 00:54:02;;;;;;;6.43;2.63;;;9.90;99.90;;;;;;5094436;28;20103;-47
2024/01/22 00:56:28;;;;;;;5.75;2.08;;;9.90;99.90;;;;;;5094841;28;20560;-41
2024/01/22 00:58:54;;;;;;;5.47;2.38;;;9.90;99.90;;;;;;5094310;28;20020;-41
2024/01/22 01:01:20;;;;;;;5.43;2.30;;;9.90;99.90;;;;;;5094609;28;20368;-40
2024/01/22 01:03:46;;;;;;;7.07;2.38;;;9.90;99.90;;;;;;5094182;28;20027;-45
2024/01/22 01:06:12;;;;;;;2.88;2.50;;;9.90;99.90;;;;;;5101354;28;20388;-48
2024/01/22 01:08:37;;;;;;;3.20;2.38;;;9.90;99.90;;;;;;5114328;28;20032;-39
2024/01/22 01:11:03;;;;;;;5.47;2.30;;;9.80;99.90;;;;;;5114520;28;20087;-48
2024/01/22 01:13:29;;;;;;;4.55;2.03;;;9.90;99.90;;;;;;5097870;28;20036;-39
2024/01/22 01:15:54;;;;;;;7.35;2.78;;;9.90;99.90;;;;;;5110832;28;20046;-41
2024/01/22 01:18:20;;;;;;;7.78;1.98;;;9.80;99.90;;;;;;5112118;28;20424;-38
2024/01/22 01:20:45;;;;;;;6.53;2.10;;;9.80;99.90;;;;;;5114167;28;20031;-38
2024/01/22 01:23:11;;;;;;;10.35;2.85;;;9.70;99.90;;;;;;5114254;28;20030;-40
2024/01/22 01:25:37;;;;;;;2.83;2.50;;;9.70;99.90;;;;;;5114239;28;20024;-37
2024/01/22 01:28:03;;;;;;;3.67;1.90;;;9.60;99.90;;;;;;5114168;28;20080;-40
2024/01/22 01:30:28;;;;;;;10.73;2.20;;;9.60;99.90;;;;;;5113248;28;20411;-37
2024/01/22 01:32:54;;;;;;;4.72;2.10;;;9.60;99.90;;;;;;5114063;28;20492;-37
2024/01/22 01:35:19;;;;;;;4.20;2.08;;;9.50;99.90;;;;;;5114001;28;20111;-36
2024/01/22 01:37:45;;;;;;;7.10;2.35;;;9.50;99.90;;;;;;5113852;28;20471;-39
2024/01/22 01:40:11;;;;;;;8.45;2.10;;;9.50;99.90;;;;;;5107130;28;20495;-37
2024/01/22 01:42:42;;;;;;;7.43;2.25;;;9.50;99.90;;;;;;5116098;27;20350;-37
2024/01/22 01:45:12;;;;;;;5.15;2.15;;;9.50;99.90;;;;;;5134768;27;20020;-39
2024/01/22 01:47:37;;;;;;;3.65;1.73;;;9.50;99.90;;;;;;5099016;27;20367;-40
2024/01/22 01:50:03;;;;;;;5.50;2.30;;;9.60;99.90;;;;;;5093233;28;20104;-39
2024/01/22 01:52:29;;;;;;;2.60;1.85;;;9.70;99.90;;;;;;5093386;28;20027;-38
2024/01/22 01:54:55;;;;;;;2.83;1.58;;;9.70;99.90;;;;;;5093308;28;20531;-40
2024/01/22 01:57:22;;;;;;;4.13;1.67;;;9.80;99.90;;;;;;5093218;28;20111;-39
2024/01/22 01:59:48;;;;;;;9.43;2.88;;;9.80;99.90;;;;;;5093505;28;20495;-38
2024/01/22 02:02:14;;;;;;;3.92;1.80;;;9.90;99.90;;;;;;5093230;28;20036;-49
2024/01/22 02:04:40;;;;;;;6.43;1.60;;;9.90;99.90;;;;;;5092768;28;20088;-38
2024/01/22 02:07:05;;;;;;;4.60;1.85;;;10.00;99.90;;;;;;5091910;28;20494;-38
2024/01/22 02:09:52;;;;;;;3.45;1.42;;;10.00;99.90;;;;;;5093394;28;20499;-45
2024/01/22 02:12:18;;;;;;;3.42;1.20;;;10.10;99.90;;;;;;5093085;28;20445;-38
2024/01/22 02:14:46;;;;;;;2.15;1.20;;;10.10;99.90;;;;;;5091614;28;20524;-37
2024/01/22 02:17:12;;;;;;;0.83;0.83;;;10.20;99.90;;;;;;5093005;28;20032;-37
2024/01/22 02:19:38;;;;;;;2.40;1.50;;;10.10;99.90;;;;;;5093287;28;20388;-37
2024/01/22 02:22:04;;;;;;;1.65;1.15;;;10.20;99.90;;;;;;5113311;28;20030;-40
2024/01/22 02:24:30;;;;;;;2.72;1.00;;;10.20;99.90;;;;;;5113277;28;20392;-38
2024/01/22 02:26:56;;;;;;;2.33;1.08;;;10.20;99.90;;;;;;5095231;28;20028;-55
2024/01/22 02:29:21;;;;;;;6.45;2.08;;;10.20;99.90;;;;;;5112878;28;20020;-57
2024/01/22 02:31:49;;;;;;;4.65;1.52;;;10.20;99.90;;;;;;5113209;28;20067;-54
2024/01/22 02:34:15;;;;;;;6.87;2.03;;;10.10;99.90;;;;;;5113196;28;20077;-51
2024/01/22 02:36:40;;;;;;;1.88;1.23;;;10.10;99.90;;;;;;5111827;28;20110;-52
2024/01/22 02:39:06;;;;;;;2.97;1.08;;;10.10;99.90;;;;;;5093069;28;20435;-51
2024/01/22 02:41:32;;;;;;;1.80;0.90;;;10.00;99.90;;;;;;5095025;28;20394;-53
2024/01/22 02:43:57;;;;;;;1.77;1.40;;;10.00;99.90;;;;;;5113089;28;20016;-51
2024/01/22 02:46:24;;;;;;;1.80;1.13;;;10.00;99.90;;;;;;5111799;28;20035;-51
2024/01/22 02:48:51;;;;;;;1.33;1.00;;;10.00;99.90;;;;;;5113300;28;20093;-51
2024/01/22 02:51:17;;;;;;;2.63;1.20;;;10.00;99.90;;;;;;5113071;28;20051;-50
2024/01/22 02:53:42;;;;;;;5.13;0.90;;;10.00;99.90;;;;;;5111557;28;20063;-56
2024/01/22 02:56:08;;;;;;;1.33;0.90;;;10.10;99.90;;;;;;5092611;28;20508;-52
2024/01/22 02:58:33;;;;;;;1.10;1.02;;;10.10;99.90;;;;;;5092645;28;20020;-55
2024/01/22 03:00:59;;;;;;;1.38;0.88;;;10.20;99.90;;;;;;5092571;28;20070;-53
2024/01/22 03:03:25;;;;;;;3.40;0.85;;;10.20;99.90;;;;;;5092491;28;20052;-56
2024/01/22 03:05:50;;;;;;;4.10;1.20;;;10.30;99.90;;;;;;5092429;28;20102;-51
2024/01/22 03:08:16;;;;;;;2.45;1.10;;;10.40;99.90;;;;;;5092574;28;20492;-56
2024/01/22 03:10:42;;;;;;;1.58;1.48;;;10.40;99.90;;;;;;5093364;28;20047;-53
2024/01/22 03:13:07;;;;;;;3.80;0.85;;;10.60;99.90;;;;;;5112891;28;20043;-51
2024/01/22 03:15:33;;;;;;;0.90;0.75;;;10.70;99.90;;;;;;5111713;28;20038;-54
2024/01/22 03:17:59;;;;;;;5.05;1.38;;;10.70;99.90;;;;;;5112808;28;20028;-56
2024/01/22 03:20:24;;;;;;;2.63;0.98;;;10.80;99.90;;;;;;5112773;28;20081;-49
2024/01/22 03:22:50;;;;;;;3.20;0.80;;;10.80;99.90;;;;;;5111508;28;20076;-54
2024/01/22 03:25:16;;;;;;;0.60;0.60;;;10.90;99.90;;;;;;5111808;28;20024;-56
2024/01/22 03:27:41;;;;;;;1.52;0.63;;;10.80;99.90;;;;;;5110752;28;20396;-54
2024/01/22 03:30:08;;;;;;;1.52;0.90;;;10.90;99.90;;;;;;5112607;28;20023;-51
2024/01/22 03:32:33;;;;;;;1.90;1.50;;;10.80;99.90;;;;;;5112663;28;20088;-55
2024/01/22 03:34:59;;;;;;;1.98;0.70;;;10.80;99.90;;;;;;5112590;28;20434;-52
2024/01/22 03:37:25;;;;;;;1.77;1.67;;;10.80;99.90;;;;;;5092323;28;20037;-37
2024/01/22 03:39:50;;;;;;;5.38;0.60;;;10.80;99.90;;;;;;5092261;28;20362;-35
2024/01/22 03:42:17;;;;;;;1.83;0.65;;;10.70;99.90;;;;;;5093548;28;20028;-36
2024/01/22 03:44:42;;;;;;;3.40;1.00;;;10.80;99.90;;;;;;5096352;28;20084;-35
2024/01/22 03:47:08;;;;;;;0.75;0.65;;;10.80;99.90;;;;;;5095728;28;20036;-36
2024/01/22 03:49:34;;;;;;;1.00;0.77;;;10.80;99.90;;;;;;5095589;28;20036;-36
2024/01/22 03:51:59;;;;;;;0.63;0.63;;;10.80;99.90;;;;;;5095957;28;20039;-43
2024/01/22 03:54:25;;;;;;;2.95;1.08;;;10.90;99.90;;;;;;5095596;28;20511;-37
2024/01/22 03:56:51;;;;;;;1.63;0.85;;;10.90;99.90;;;;;;5095446;28;20020;-42
2024/01/22 03:59:17;;;;;;;1.85;0.75;;;10.90;99.90;;;;;;5095410;28;20024;-42
2024/01/22 04:01:42;;;;;;;1.05;0.80;;;11.00;99.90;;;;;;5095921;28;20020;-54
2024/01/22 04:04:08;;;;;;;2.85;0.90;;;11.00;99.90;;;;;;5095466;28;20385;-36
2024/01/22 04:06:33;;;;;;;1.20;0.40;;;11.00;99.90;;;;;;5095479;28;20020;-36
2024/01/22 04:08:59;;;;;;;2.70;0.45;;;11.10;99.90;;;;;;5095307;28;20059;-38
2024/01/22 04:11:25;;;;;;;0.70;0.70;;;11.10;99.90;;;;;;5095539;28;20021;-38
2024/01/22 04:13:50;;;;;;;1.67;0.70;;;11.20;99.90;;;;;;5095073;28;20054;-38
2024/01/22 04:16:16;;;;;;;2.45;0.70;;;11.30;99.90;;;;;;5095334;28;20081;-37
2024/01/22 04:18:42;;;;;;;4.07;0.60;;;11.30;99.90;;;;;;5095940;28;20020;-39
2024/01/22 04:21:09;;;;;;;1.17;0.63;;;11.30;99.90;;;;;;5115484;28;20036;-39
2024/01/22 04:23:35;;;;;;;3.00;0.70;;;11.30;99.90;;;;;;5115386;27;20395;-38
2024/01/22 04:26:03;;;;;;;1.17;1.17;;;11.40;99.90;;;;;;5115447;28;20117;-39
2024/01/22 04:28:28;;;;;;;2.05;0.40;;;11.40;99.90;;;;;;5114141;28;20102;-39
2024/01/22 04:30:54;;;;;;;0.70;0.60;;;11.50;99.90;;;;;;5115327;28;20126;-39
2024/01/22 04:33:20;;;;;;;0.57;0.57;;;11.50;99.90;;;;;;5113448;28;20032;-39
2024/01/22 04:35:46;;;;;;;3.85;1.10;;;11.50;99.90;;;;;;5095257;28;20396;-40
2024/01/22 04:38:12;;;;;;;2.20;0.32;;;11.50;99.90;;;;;;5094845;28;20039;-39
2024/01/22 04:40:37;;;;;;;1.40;0.57;;;11.50;99.90;;;;;;5094992;28;20016;-37
2024/01/22 04:43:03;;;;;;;1.30;0.57;;;11.50;99.90;;;;;;5109548;28;20024;-37
2024/01/22 04:45:29;;;;;;;1.33;0.60;;;11.50;99.90;;;;;;5115079;28;20019;-62
2024/01/22 04:47:54;;;;;;;0.40;0.40;;;11.60;99.90;;;;;;5115068;28;20058;-55
2024/01/22 04:50:20;;;;;;;2.22;0.43;;;11.60;99.90;;;;;;5114841;28;20102;-53
2024/01/22 04:52:46;;;;;;;0.40;0.40;;;11.50;99.90;;;;;;5112582;28;20049;-54
2024/01/22 04:55:11;;;;;;;1.05;0.30;;;11.50;99.90;;;;;;5094460;28;20032;-56
2024/01/22 04:57:37;;;;;;;0.70;0.70;;;11.40;99.90;;;;;;5094600;28;20012;-53
2024/01/22 05:00:04;;;;;;;0.90;0.50;;;11.40;99.90;;;;;;5094372;28;20480;-55
2024/01/22 05:02:30;;;;;;;0.50;0.50;;;11.30;99.90;;;;;;5094298;28;20361;-53
2024/01/22 05:05:00;;;;;;;0.45;0.38;;;11.30;99.90;;;;;;5094262;28;20058;-54
2024/01/22 05:07:25;;;;;;;1.95;0.65;;;11.30;99.90;;;;;;5094368;28;20099;-54
2024/01/22 05:10:00;;;;;;;0.50;0.50;;;11.30;99.90;;;;;;5096503;28;20055;-52
2024/01/22 05:12:26;;;;;;;2.00;0.82;;;11.20;99.90;;;;;;5114304;28;20041;-53
2024/01/22 05:14:52;;;;;;;1.00;0.30;;;11.20;99.90;;;;;;5114695;28;20497;-50
2024/01/22 05:17:18;;;;;;;0.70;0.70;;;11.20;99.90;;;;;;5114539;28;20460;-51
2024/01/22 05:19:43;;;;;;;1.90;0.98;;;11.10;99.90;;;;;;5114281;28;20027;-55
2024/01/22 05:22:09;;;;;;;1.02;0.60;;;11.10;99.90;;;;;;5114331;28;20024;-54
2024/01/22 05:24:35;;;;;;;0.60;0.60;;;11.00;99.90;;;;;;5114218;28;20105;-54
2024/01/22 05:27:02;;;;;;;0.63;0.55;;;11.00;99.90;;;;;;5113334;28;20024;-56
2024/01/22 05:29:28;;;;;;;4.03;0.60;;;11.10;99.90;;;;;;5112908;28;20034;-66
2024/01/22 05:31:53;;;;;;;1.25;0.47;;;11.10;99.90;;;;;;5105869;28;20430;-54
2024/01/22 05:34:19;;;;;;;3.28;0.88;;;11.10;99.90;;;;;;5092481;28;20034;-48
2024/01/22 05:36:46;;;;;;;0.60;0.40;;;11.20;99.90;;;;;;5093572;28;20031;-49
2024/01/22 05:39:12;;;;;;;2.45;0.77;;;11.20;99.90;;;;;;5092261;28;20051;-52
2024/01/22 05:41:38;;;;;;;1.40;0.50;;;11.30;99.90;;;;;;5096740;28;20016;-59
2024/01/22 05:44:04;;;;;;;3.63;0.85;;;11.30;99.90;;;;;;5109550;28;20082;-54
2024/01/22 05:46:30;;;;;;;6.88;0.80;;;11.40;99.90;;;;;;5093473;28;20396;-54
2024/01/22 05:48:56;;;;;;;5.05;0.95;;;11.50;99.90;;;;;;5093373;28;20028;-53
2024/01/22 05:51:21;;;;;;;0.65;0.65;;;11.50;99.90;;;;;;5093693;28;20035;-54
2024/01/22 05:53:47;;;;;;;0.98;0.70;;;11.60;99.90;;;;;;5093367;28;20095;-56
2024/01/22 05:56:26;;;;;;;6.25;1.17;;;11.60;99.90;;;;;;5093485;28;20031;-56
2024/01/22 05:58:53;;;;;;;1.33;0.88;;;11.60;99.90;;;;;;5093381;28;20495;-56
2024/01/22 06:01:27;;;;;;;4.10;0.83;;;11.70;99.90;;;;;;5092546;28;20476;-51
2024/01/22 06:03:53;;;;;;;3.70;0.73;;;11.70;99.90;;;;;;5092997;28;20020;-54
2024/01/22 06:06:19;;;;;;;2.42;0.88;;;11.70;99.90;;;;;;5092619;28;20047;-55
2024/01/22 06:08:46;;;;;;;1.30;0.90;;;11.70;99.90;;;;;;5093090;28;20056;-56
2024/01/22 06:11:12;;;;;;;9.30;1.15;;;11.70;99.90;;;;;;5091542;28;20489;-53
2024/01/22 06:13:39;;;;;;;3.08;0.95;;;11.70;99.90;;;;;;5092904;28;20044;-55
2024/01/22 06:16:12;;;;;;;9.88;0.80;;;11.70;99.90;;;;;;5092932;28;20035;-54
2024/01/22 06:18:39;;;;;;;5.82;1.10;;;11.70;99.90;;;;;;5091808;28;20028;-53
2024/01/22 06:21:06;;;;;;;3.35;0.82;;;11.70;99.90;;;;;;5092909;28;20036;-57
2024/01/22 06:23:32;;;;;;;2.53;1.00;;;11.70;99.90;;;;;;5093045;28;20027;-55
2024/01/22 06:25:58;;;;;;;2.17;0.82;;;11.80;99.90;;;;;;5093125;28;20102;-56
2024/01/22 06:28:30;;;;;;;8.32;1.10;;;11.80;99.90;;;;;;5093012;28;20052;-55
2024/01/22 06:30:56;;;;;;;4.28;1.02;;;11.80;99.90;;;;;;5092605;28;20107;-53
2024/01/22 06:33:22;;;;;;;2.33;0.95;;;11.80;99.90;;;;;;5091392;28;20443;-55
2024/01/22 06:35:49;;;;;;;7.00;1.13;;;11.80;99.90;;;;;;5092825;28;20024;-51
2024/01/22 06:38:18;;;;;;;5.72;0.95;;;11.80;99.90;;;;;;5091705;28;20494;-55
2024/01/22 06:40:47;;;;;;;8.60;1.10;;;11.80;99.90;;;;;;5092782;28;20020;-55
2024/01/22 06:43:13;;;;;;;8.02;1.58;;;11.80;99.90;;;;;;5092786;28;20492;-55
2024/01/22 06:45:40;;;;;;;1.48;0.82;;;11.90;99.90;;;;;;5092582;28;20099;-53
2024/01/22 06:48:05;;;;;;;7.35;1.55;;;11.90;99.90;;;;;;5092666;28;20028;-53
2024/01/22 06:50:31;;;;;;;6.32;1.00;;;11.90;99.90;;;;;;5092602;28;20012;-53
2024/01/22 06:52:57;;;;;;;1.98;1.00;;;11.90;99.90;;;;;;5092465;28;20099;-56
2024/01/22 06:55:25;;;;;;;6.03;1.02;;;11.90;99.90;;;;;;5092476;28;20478;-75
2024/01/22 06:57:51;;;;;;;3.60;1.30;;;11.90;99.90;;;;;;5092557;28;20074;-55
2024/01/22 07:00:19;;;;;;;5.40;0.80;;;11.90;99.90;;;;;;5092620;28;20482;-53
2024/01/22 07:02:45;;;;;;;4.68;1.00;;;11.90;99.90;;;;;;5092825;28;20060;-55
2024/01/22 07:05:11;;;;;;;9.32;1.10;;;11.90;99.90;;;;;;5092581;28;20100;-56
2024/01/22 07:07:38;;;;;;;12.23;1.45;;;11.90;99.90;;;;;;5093353;28;20105;-38
2024/01/22 07:10:08;;;;;;;4.72;1.50;;;11.90;99.90;;;;;;5092434;28;20480;-65
2024/01/22 07:12:40;;;;;;;6.80;1.70;;;11.90;99.90;;;;;;5092528;28;20495;-39
2024/01/22 07:15:08;;;;;;;17.30;1.67;;;11.90;99.90;;;;;;5092758;28;20472;-42
2024/01/22 07:17:34;;;;;;;;;;;11.90;99.90;;;;;;5095086;28;20675;-38
2024/01/22 07:19:59;;;;;;;7.95;1.63;;;11.90;99.90;;;;;;5096241;28;19917;-38
2024/01/22 07:22:25;;;;;;;9.43;1.63;;;12.00;99.90;;;;;;5096220;28;20008;-39
2024/01/22 07:24:50;;;;;;;17.42;2.28;;;11.90;99.90;;;;;;5096118;28;20095;-39
2024/01/22 07:27:16;;;;;;;13.85;2.38;;;12.00;99.90;;;;;;5096062;28;20036;-40
2024/01/22 07:29:42;;;;;;;16.15;2.30;;;12.00;99.90;;;;;;5096083;28;20039;-40
2024/01/22 07:32:09;;;;;;;11.13;2.45;;;12.00;99.90;;;;;;5096270;28;20137;-41
2024/01/22 07:34:34;;;;;;;24.33;3.40;;;12.00;99.90;;;;;;5095912;28;20051;-46
2024/01/22 07:37:00;;;;;;;23.75;3.22;;;12.00;99.90;;;;;;5094526;28;20056;-39
2024/01/22 07:39:25;;;;;;;25.73;2.65;;;12.00;99.90;;;;;;5095931;28;20106;-41
2024/01/22 07:41:51;;;;;;;19.20;2.78;;;12.10;99.90;;;;;;5096052;28;20019;-43
2024/01/22 07:44:17;;;;;;;26.75;2.90;;;12.10;99.90;;;;;;5094451;28;20472;-39
2024/01/22 07:46:43;;;;;;;17.95;3.03;;;12.10;99.90;;;;;;5095760;28;20035;-39
2024/01/22 07:49:08;;;;;;;22.52;4.28;;;12.10;99.90;;;;;;5095591;28;20047;-40
2024/01/22 07:51:34;;;;;;;29.17;4.50;;;12.00;99.90;;;;;;5095544;28;20438;-43
2024/01/22 07:54:01;;;;;;;33.17;4.30;;;12.00;99.90;;;;;;5077364;28;20420;-39
2024/01/22 07:56:28;;;;;;;31.70;3.92;;;12.00;99.90;;;;;;5095502;28;20035;-42
2024/01/22 07:58:54;;;;;;;21.30;3.95;;;12.10;99.90;;;;;;5095772;28;20474;-73
2024/01/22 08:01:19;;;;;;;23.58;3.88;;;12.00;99.90;;;;;;5095386;28;20153;-45
2024/01/22 08:03:45;;;;;;;27.13;3.85;;;11.90;99.90;;;;;;5095652;28;20111;-37
2024/01/22 08:06:11;;;;;;;20.13;2.70;;;11.90;99.90;;;;;;5095292;28;20024;-38
2024/01/22 08:08:39;;;;;;;21.33;2.92;;;11.80;99.90;;;;;;5094112;28;20519;-37
2024/01/22 08:11:05;;;;;;;13.18;2.97;;;11.70;99.90;;;;;;5095289;28;20024;-37
2024/01/22 08:13:30;;;;;;;22.20;2.60;;;11.60;99.90;;;;;;5095081;28;20052;-39
2024/01/22 08:15:56;;;;;;;20.10;3.63;;;11.40;99.90;;;;;;5095146;28;20081;-38
2024/01/22 08:18:22;;;;;;;16.13;2.55;;;11.40;99.90;;;;;;5094013;28;20032;-55
2024/01/22 08:20:48;;;;;;;15.70;2.40;;;11.30;99.90;;;;;;5095159;28;20464;-54
2024/01/22 08:23:14;;;;;;;12.38;2.63;;;11.30;99.90;;;;;;5095003;28;20028;-56
2024/01/22 08:25:40;;;;;;;14.80;2.15;;;11.20;99.90;;;;;;5095322;28;20132;-52
2024/01/22 08:28:06;;;;;;;10.40;2.15;;;11.30;99.90;;;;;;5094301;28;20024;-57
2024/01/22 08:30:32;;;;;;;6.03;1.95;;;11.30;99.90;;;;;;5095221;28;20432;-56
2024/01/22 08:32:58;;;;;;;10.05;2.75;;;11.30;99.90;;;;;;5093630;28;20031;-56
2024/01/22 08:35:24;;;;;;;19.25;2.58;;;11.30;99.90;;;;;;5093555;28;20028;-56
2024/01/22 08:37:54;;;;;;;21.27;4.35;;;11.20;99.90;;;;;;5094850;28;20024;-54
2024/01/22 08:40:21;;;;;;;24.95;3.00;;;11.20;99.90;;;;;;5093500;28;20028;-54
2024/01/22 08:42:52;;;;;;;17.27;2.42;;;11.20;99.90;;;;;;5094743;28;20020;-57
2024/01/22 08:45:19;;;;;;;14.07;2.72;;;11.20;99.90;;;;;;5094614;28;20024;-62
2024/01/22 08:47:47;;;;;;;21.45;3.17;;;11.20;99.90;;;;;;5093331;28;20387;-54
2024/01/22 08:50:22;;;;;;;24.15;2.67;;;11.20;99.90;;;;;;5094477;28;20388;-55
2024/01/22 08:52:52;;;;;;;23.33;2.90;;;11.20;99.90;;;;;;5094584;28;20502;-56
2024/01/22 08:55:20;;;;;;;21.52;3.10;;;11.20;99.90;;;;;;5094437;28;20028;-55
2024/01/22 08:57:46;;;;;;;19.10;3.70;;;11.20;99.90;;;;;;5094369;28;20020;-56
2024/01/22 09:00:13;;;;;;;32.40;3.78;;;11.20;99.90;;;;;;5094422;28;20552;-58
2024/01/22 09:02:39;;;;;;;31.48;4.97;;;11.20;99.90;;;;;;5094316;28;20028;-54
2024/01/22 09:05:14;;;;;;;37.55;4.90;;;11.20;99.90;;;;;;5094281;28;20565;-55
2024/01/22 09:07:41;;;;;;;32.75;6.57;;;11.20;99.90;;;;;;5094446;28;20469;-55
2024/01/22 09:10:07;;;;;;;37.10;4.72;;;11.10;99.90;;;;;;5094434;28;20498;-55
2024/01/22 09:12:36;;;;;;;33.88;4.03;;;11.10;99.90;;;;;;5093952;28;20034;-55
2024/01/22 09:15:04;;;;;;;33.20;4.88;;;11.20;99.90;;;;;;5094072;28;20042;-55
2024/01/22 09:17:30;;;;;;;24.42;4.28;;;11.20;99.90;;;;;;5094210;28;20476;-56
2024/01/22 09:19:56;;;;;;;28.08;4.10;;;11.10;99.90;;;;;;5094054;28;20096;-55
2024/01/22 09:22:23;;;;;;;26.85;5.07;;;11.10;99.90;;;;;;5092760;28;20024;-53
2024/01/22 09:24:49;;;;;;;36.65;4.20;;;11.10;99.90;;;;;;5093883;28;20435;-37
2024/01/22 09:27:15;;;;;;;42.08;4.90;;;10.90;99.90;;;;;;5093907;28;20027;-39
2024/01/22 09:29:41;;;;;;;21.80;4.00;;;10.90;99.90;;;;;;5094015;28;20521;-55
2024/01/22 09:32:09;;;;;;;37.08;3.88;;;10.80;99.90;;;;;;5093788;28;20544;-55
2024/01/22 09:34:35;;;;;;;27.90;3.58;;;10.80;99.90;;;;;;5094013;28;20119;-57
2024/01/22 09:37:01;;;;;;;31.90;4.88;;;10.80;99.90;;;;;;5093483;28;20035;-38
2024/01/22 09:39:27;;;;;;;28.92;3.92;;;10.70;99.90;;;;;;5092689;28;20024;-37
2024/01/22 09:41:53;;;;;;;31.00;3.75;;;10.70;99.90;;;;;;5093632;28;20487;-38
2024/01/22 09:44:20;;;;;;;23.42;3.80;;;10.70;99.90;;;;;;5092221;28;20042;-38
2024/01/22 09:46:47;;;;;;;30.88;3.88;;;10.70;99.90;;;;;;5093482;28;20028;-38
2024/01/22 09:49:13;;;;;;;29.13;5.07;;;10.60;99.90;;;;;;5093395;28;20028;-38
2024/01/22 09:51:44;;;;;;;34.20;3.22;;;10.60;99.90;;;;;;5093408;28;20032;-36
2024/01/22 09:54:14;;;;;;;33.95;3.40;;;10.50;99.90;;;;;;5093457;28;20027;-38
2024/01/22 09:56:40;;;;;;;30.60;3.13;;;10.50;99.90;;;;;;5093563;28;20028;-37
2024/01/22 09:59:21;;;;;;;26.30;2.95;;;10.50;99.90;;;;;;5093288;28;20384;-41
2024/01/22 10:01:48;;;;;;;28.25;3.63;;;10.50;99.90;;;;;;5093169;28;20077;-38
2024/01/22 10:04:15;;;;;;;21.73;2.97;;;10.50;99.90;;;;;;5093227;28;20387;-40
2024/01/22 10:06:42;;;;;;;13.70;2.70;;;10.50;99.90;;;;;;5093059;28;20770;-38
2024/01/22 10:09:08;;;;;;;13.18;3.20;;;10.60;99.90;;;;;;5093134;28;20413;-37
2024/01/22 10:11:35;;;;;;;15.32;2.33;;;10.70;99.90;;;;;;5093104;28;20028;-38
2024/01/22 10:14:01;;;;;;;20.38;2.95;;;10.70;99.90;;;;;;5092998;28;20440;-44
2024/01/22 10:16:28;;;;;;;17.55;2.90;;;10.60;99.90;;;;;;5093255;28;20125;-41
2024/01/22 10:19:05;;;;;;;16.10;2.95;;;10.60;99.90;;;;;;5093266;28;20173;-37
2024/01/22 10:21:31;;;;;;;18.17;2.47;;;10.50;99.90;;;;;;5093255;28;20020;-37
2024/01/22 10:23:59;;;;;;;14.68;2.85;;;10.50;99.90;;;;;;5092913;28;20024;-37
2024/01/22 10:26:24;;;;;;;19.20;2.63;;;10.50;99.90;;;;;;5092938;28;20028;-37
2024/01/22 10:28:51;;;;;;;18.33;3.38;;;10.50;99.90;;;;;;5092929;28;20020;-37
2024/01/22 10:31:17;;;;;;;16.00;3.17;;;10.40;99.90;;;;;;5093110;28;20494;-37
2024/01/22 10:33:42;;;;;;;12.98;2.60;;;10.50;99.90;;;;;;5092771;28;20016;-38
2024/01/22 10:36:19;;;;;;;22.45;2.28;;;10.50;99.90;;;;;;5092718;28;20030;-37
2024/01/22 10:38:46;;;;;;;16.88;3.63;;;10.50;99.90;;;;;;5093161;28;20408;-37
2024/01/22 10:41:24;;;;;;;17.20;4.07;;;10.60;99.90;;;;;;5092807;28;20012;-37
2024/01/22 10:43:50;;;;;;;15.30;3.35;;;10.60;99.90;;;;;;5092669;28;20073;-46
2024/01/22 10:46:18;;;;;;;23.13;3.35;;;10.60;99.90;;;;;;5092721;28;20430;-37
2024/01/22 10:48:44;;;;;;;11.70;2.42;;;10.60;99.90;;;;;;5092614;28;20217;-46
2024/01/22 10:51:10;;;;;;;19.30;2.40;;;10.70;99.90;;;;;;5094125;28;20468;-42
2024/01/22 10:53:39;;;;;;;29.25;3.55;;;10.70;99.90;;;;;;5096763;28;20031;-36
2024/01/22 10:56:05;;;;;;;19.85;2.25;;;10.60;99.90;;;;;;5096629;28;20464;-43
2024/01/22 10:58:44;;;;;;;19.48;2.65;;;10.70;99.90;;;;;;5096651;28;20028;-39
2024/01/22 11:01:18;;;;;;;14.40;2.28;;;10.70;99.90;;;;;;5096644;28;20024;-37
2024/01/22 11:03:48;;;;;;;27.75;2.92;;;10.80;99.90;;;;;;5096599;28;20086;-36
2024/01/22 11:06:21;;;;;;;29.42;3.30;;;10.80;99.90;;;;;;5095468;28;20049;-37
2024/01/22 11:08:56;;;;;;;24.05;3.92;;;10.90;99.90;;;;;;5096495;28;20016;-38
2024/01/22 11:11:27;;;;;;;17.85;2.63;;;10.90;99.90;;;;;;5096445;28;20077;-37
2024/01/22 11:14:01;;;;;;;27.55;5.13;;;10.90;99.90;;;;;;5096271;28;20564;-37
2024/01/22 11:16:27;;;;;;;20.20;3.33;;;10.90;99.90;;;;;;5096291;28;20029;-39
2024/01/22 11:19:04;;;;;;;14.38;2.13;;;10.90;99.90;;;;;;5096311;28;20384;-36
2024/01/22 11:21:33;;;;;;;24.97;2.87;;;10.90;99.90;;;;;;5096403;28;20388;-36
2024/01/22 11:24:17;;;;;;;13.07;2.60;;;10.90;99.90;;;;;;5096458;28;20476;-37
2024/01/22 11:27:03;;;;;;;17.35;2.60;;;11.00;99.90;;;;;;5096785;28;20529;-37
2024/01/22 11:29:29;;;;;;;20.75;2.08;;;11.00;99.90;;;;;;5096114;28;20496;-37
2024/01/22 11:31:58;;;;;;;22.02;2.17;;;10.90;99.90;;;;;;5096281;28;20495;-36
2024/01/22 11:34:45;;;;;;;18.30;3.67;;;10.90;99.90;;;;;;5096026;28;20039;-37
2024/01/22 11:37:11;;;;;;;17.52;2.35;;;11.00;99.90;;;;;;5128697;27;20031;-37
2024/01/22 11:39:41;;;;;;;21.55;3.22;;;11.00;99.90;;;;;;5095840;28;20056;-37
2024/01/22 11:42:16;;;;;;;19.98;3.88;;;11.10;99.90;;;;;;5096099;28;20111;-38
2024/01/22 11:44:52;;;;;;;26.38;3.08;;;11.00;99.90;;;;;;5096020;28;20039;-37
2024/01/22 11:47:22;;;;;;;21.45;3.65;;;11.00;99.90;;;;;;5094311;28;20024;-39
2024/01/22 11:49:48;;;;;;;24.35;2.92;;;11.00;99.90;;;;;;5095887;28;20036;-53
2024/01/22 11:52:16;;;;;;;18.48;2.08;;;11.00;99.90;;;;;;5094332;28;20111;-52
2024/01/22 11:54:59;;;;;;;17.65;3.28;;;11.00;99.90;;;;;;5095588;28;20508;-53
2024/01/22 11:57:26;;;;;;;25.08;2.50;;;11.00;99.90;;;;;;5095506;28;20028;-54
2024/01/22 12:00:05;;;;;;;14.90;2.97;;;11.10;99.90;;;;;;5095551;28;20424;-54
2024/01/22 12:02:34;;;;;;;18.73;2.78;;;11.10;99.90;;;;;;5094655;28;20366;-54
2024/01/22 12:05:06;;;;;;;16.13;2.83;;;11.10;99.90;;;;;;5095412;28;20498;-54
2024/01/22 12:07:36;;;;;;;20.30;2.92;;;11.10;99.90;;;;;;5094126;28;20498;-54
2024/01/22 12:10:04;;;;;;;19.92;3.55;;;11.10;99.90;;;;;;5095370;28;20495;-53
2024/01/22 12:12:30;;;;;;;;;;;11.10;99.90;;;;;;5095634;28;20442;-52
2024/01/22 12:14:57;;;;;;;24.92;3.08;;;11.00;99.90;;;;;;5095166;28;19911;-52
2024/01/22 12:17:23;;;;;;;18.00;4.15;;;11.00;99.90;;;;;;5095391;28;20035;-54
2024/01/22 12:19:56;;;;;;;22.42;3.22;;;11.10;99.90;;;;;;5095403;28;20106;-52
2024/01/22 12:22:23;;;;;;;17.95;2.67;;;11.10;99.90;;;;;;5095405;28;20471;-54
2024/01/22 12:25:07;;;;;;;18.10;2.50;;;11.10;99.90;;;;;;5095127;28;20028;-50
2024/01/22 12:27:33;;;;;;;16.52;2.30;;;11.10;99.90;;;;;;5095062;28;20489;-54
2024/01/22 12:30:16;;;;;;;14.95;2.17;;;11.10;99.90;;;;;;5094919;28;20034;-55
2024/01/22 12:32:53;;;;;;;21.42;2.72;;;11.10;99.90;;;;;;5094965;28;20036;-55
2024/01/22 12:35:23;;;;;;;14.97;2.77;;;11.10;99.90;;;;;;5095123;28;20020;-49
2024/01/22 12:37:49;;;;;;;16.15;2.75;;;11.10;99.90;;;;;;5094658;28;20035;-53
2024/01/22 12:40:19;;;;;;;14.27;1.73;;;11.20;99.90;;;;;;5094595;28;20502;-54
2024/01/22 12:42:47;;;;;;;14.13;3.03;;;11.30;99.90;;;;;;5094654;28;20020;-54
2024/01/22 12:45:20;;;;;;;15.50;2.33;;;11.30;99.90;;;;;;5094680;28;20070;-54